sensor_id;sensor_type;location;lat;lon;timestamp;pressure;altitude;pressure_sealevel;temperature;humidity
60817;BME280;51921;51.518;-3.188;2023-09-19T00:00:57;100361.22;;;12.31;100.00
60817;BME280;51921;51.518;-3.188;2023-09-19T00:03:20;100370.61;;;11.96;100.00
60817;BME280;51921;51.518;-3.188;2023-09-19T00:05:46;100358.84;;;11.93;100.00
60817;BME280;51921;51.518;-3.188;2023-09-19T00:08:11;100353.81;;;10.22;100.00
60817;BME280;51921;51.518;-3.188;2023-09-19T00:10:36;100355.48;;;9.67;100.00
60817;BME280;51921;51.518;-3.188;2023-09-19T00:13:03;100352.43;;;10.25;100.00
60817;BME280;51921;51.518;-3.188;2023-09-19T00:15:27;100353.09;;;11.17;100.00
60817;BME280;51921;51.518;-3.188;2023-09-19T00:17:53;100354.31;;;11.53;100.00
60817;BME280;51921;51.518;-3.188;2023-09-19T00:20:18;100346.83;;;11.20;100.00
60817;BME280;51921;51.518;-3.188;2023-09-19T00:22:44;100348.49;;;11.66;100.00
60817;BME280;51921;51.518;-3.188;2023-09-19T00:25:09;100353.05;;;11.59;100.00
60817;BME280;51921;51.518;-3.188;2023-09-19T00:27:35;100351.90;;;10.76;100.00
60817;BME280;51921;51.518;-3.188;2023-09-19T00:30:00;100337.89;;;11.81;100.00
60817;BME280;51921;51.518;-3.188;2023-09-19T00:32:25;100342.64;;;11.16;100.00
60817;BME280;51921;51.518;-3.188;2023-09-19T00:34:51;100357.29;;;10.73;100.00
60817;BME280;51921;51.518;-3.188;2023-09-19T00:37:16;100349.86;;;10.80;100.00
60817;BME280;51921;51.518;-3.188;2023-09-19T00:39:42;100352.61;;;9.74;100.00
60817;BME280;51921;51.518;-3.188;2023-09-19T00:42:07;100346.38;;;9.73;100.00
60817;BME280;51921;51.518;-3.188;2023-09-19T00:44:33;100355.69;;;9.38;100.00
60817;BME280;51921;51.518;-3.188;2023-09-19T00:46:58;100358.40;;;9.94;100.00
60817;BME280;51921;51.518;-3.188;2023-09-19T00:49:23;100358.45;;;10.72;100.00
60817;BME280;51921;51.518;-3.188;2023-09-19T00:51:49;100351.96;;;10.51;100.00
60817;BME280;51921;51.518;-3.188;2023-09-19T00:54:15;100351.82;;;10.14;100.00
60817;BME280;51921;51.518;-3.188;2023-09-19T00:56:39;100340.70;;;10.54;100.00
60817;BME280;51921;51.518;-3.188;2023-09-19T00:59:05;100338.27;;;10.51;100.00
60817;BME280;51921;51.518;-3.188;2023-09-19T01:01:30;100337.24;;;10.32;100.00
60817;BME280;51921;51.518;-3.188;2023-09-19T01:03:55;100336.24;;;10.50;100.00
60817;BME280;51921;51.518;-3.188;2023-09-19T01:06:21;100332.71;;;10.98;100.00
60817;BME280;51921;51.518;-3.188;2023-09-19T01:08:46;100333.88;;;10.84;100.00
60817;BME280;51921;51.518;-3.188;2023-09-19T01:11:17;100335.71;;;11.23;100.00
60817;BME280;51921;51.518;-3.188;2023-09-19T01:13:47;100326.50;;;10.63;100.00
60817;BME280;51921;51.518;-3.188;2023-09-19T01:16:07;100334.80;;;10.45;100.00
60817;BME280;51921;51.518;-3.188;2023-09-19T01:18:35;100337.66;;;10.81;100.00
60817;BME280;51921;51.518;-3.188;2023-09-19T01:21:00;100341.18;;;10.93;100.00
60817;BME280;51921;51.518;-3.188;2023-09-19T01:23:23;100345.61;;;11.48;100.00
60817;BME280;51921;51.518;-3.188;2023-09-19T01:28:20;100343.67;;;11.02;100.00
60817;BME280;51921;51.518;-3.188;2023-09-19T01:30:40;100342.50;;;10.97;100.00
60817;BME280;51921;51.518;-3.188;2023-09-19T01:33:00;100340.34;;;10.70;100.00
60817;BME280;51921;51.518;-3.188;2023-09-19T01:35:25;100339.80;;;10.79;100.00
60817;BME280;51921;51.518;-3.188;2023-09-19T01:37:51;100334.17;;;11.58;100.00
60817;BME280;51921;51.518;-3.188;2023-09-19T01:40:20;100328.91;;;11.76;100.00
60817;BME280;51921;51.518;-3.188;2023-09-19T01:42:45;100326.94;;;10.96;100.00
60817;BME280;51921;51.518;-3.188;2023-09-19T01:45:12;100325.55;;;10.63;100.00
60817;BME280;51921;51.518;-3.188;2023-09-19T01:47:34;100324.11;;;11.52;100.00
60817;BME280;51921;51.518;-3.188;2023-09-19T01:50:06;100318.20;;;11.61;100.00
60817;BME280;51921;51.518;-3.188;2023-09-19T01:52:30;100314.92;;;11.80;100.00
60817;BME280;51921;51.518;-3.188;2023-09-19T01:54:51;100304.82;;;12.11;100.00
60817;BME280;51921;51.518;-3.188;2023-09-19T01:57:20;100301.45;;;11.56;100.00
60817;BME280;51921;51.518;-3.188;2023-09-19T01:59:45;100298.19;;;11.76;100.00
60817;BME280;51921;51.518;-3.188;2023-09-19T02:02:06;100293.12;;;11.93;100.00
60817;BME280;51921;51.518;-3.188;2023-09-19T02:04:33;100292.75;;;11.29;100.00
60817;BME280;51921;51.518;-3.188;2023-09-19T02:06:56;100288.13;;;12.06;100.00
60817;BME280;51921;51.518;-3.188;2023-09-19T02:09:22;100287.62;;;11.38;100.00
60817;BME280;51921;51.518;-3.188;2023-09-19T02:11:47;100289.59;;;11.35;100.00
60817;BME280;51921;51.518;-3.188;2023-09-19T02:14:13;100288.88;;;10.99;100.00
60817;BME280;51921;51.518;-3.188;2023-09-19T02:16:38;100287.68;;;11.03;100.00
60817;BME280;51921;51.518;-3.188;2023-09-19T02:19:03;100290.24;;;10.94;100.00
60817;BME280;51921;51.518;-3.188;2023-09-19T02:21:29;100293.19;;;10.71;100.00
60817;BME280;51921;51.518;-3.188;2023-09-19T02:23:54;100292.36;;;11.24;100.00
60817;BME280;51921;51.518;-3.188;2023-09-19T02:26:19;100280.05;;;11.89;100.00
60817;BME280;51921;51.518;-3.188;2023-09-19T02:28:45;100279.62;;;11.96;100.00
60817;BME280;51921;51.518;-3.188;2023-09-19T02:31:10;100284.04;;;11.02;100.00
60817;BME280;51921;51.518;-3.188;2023-09-19T02:33:36;100275.97;;;12.00;100.00
60817;BME280;51921;51.518;-3.188;2023-09-19T02:36:01;100278.35;;;11.29;100.00
60817;BME280;51921;51.518;-3.188;2023-09-19T02:38:27;100272.71;;;11.14;100.00
60817;BME280;51921;51.518;-3.188;2023-09-19T02:40:53;100264.87;;;11.19;100.00
60817;BME280;51921;51.518;-3.188;2023-09-19T02:43:17;100263.62;;;10.86;100.00
60817;BME280;51921;51.518;-3.188;2023-09-19T02:45:43;100267.15;;;11.33;100.00
60817;BME280;51921;51.518;-3.188;2023-09-19T02:48:08;100260.62;;;11.23;100.00
60817;BME280;51921;51.518;-3.188;2023-09-19T02:50:33;100253.40;;;11.37;100.00
60817;BME280;51921;51.518;-3.188;2023-09-19T02:52:59;100250.74;;;11.17;100.00
60817;BME280;51921;51.518;-3.188;2023-09-19T02:55:24;100246.46;;;10.65;100.00
60817;BME280;51921;51.518;-3.188;2023-09-19T02:57:51;100240.95;;;11.32;100.00
60817;BME280;51921;51.518;-3.188;2023-09-19T03:00:17;100229.31;;;12.16;100.00
60817;BME280;51921;51.518;-3.188;2023-09-19T03:02:40;100217.36;;;11.42;100.00
60817;BME280;51921;51.518;-3.188;2023-09-19T03:05:07;100217.05;;;11.14;100.00
60817;BME280;51921;51.518;-3.188;2023-09-19T03:07:31;100203.19;;;11.25;100.00
60817;BME280;51921;51.518;-3.188;2023-09-19T03:09:57;100195.94;;;11.60;100.00
60817;BME280;51921;51.518;-3.188;2023-09-19T03:12:22;100187.65;;;11.87;100.00
60817;BME280;51921;51.518;-3.188;2023-09-19T03:14:48;100182.43;;;11.74;100.00
60817;BME280;51921;51.518;-3.188;2023-09-19T03:17:13;100182.84;;;11.18;100.00
60817;BME280;51921;51.518;-3.188;2023-09-19T03:19:38;100182.50;;;11.30;100.00
60817;BME280;51921;51.518;-3.188;2023-09-19T03:22:05;100184.93;;;10.82;100.00
60817;BME280;51921;51.518;-3.188;2023-09-19T03:24:29;100183.37;;;11.33;100.00
60817;BME280;51921;51.518;-3.188;2023-09-19T03:26:54;100177.71;;;11.06;100.00
60817;BME280;51921;51.518;-3.188;2023-09-19T03:29:20;100174.73;;;11.10;100.00
60817;BME280;51921;51.518;-3.188;2023-09-19T03:31:45;100169.80;;;10.94;100.00
60817;BME280;51921;51.518;-3.188;2023-09-19T03:34:11;100173.16;;;10.91;100.00
60817;BME280;51921;51.518;-3.188;2023-09-19T03:36:36;100170.27;;;11.86;100.00
60817;BME280;51921;51.518;-3.188;2023-09-19T03:39:02;100180.93;;;11.14;100.00
60817;BME280;51921;51.518;-3.188;2023-09-19T03:41:27;100185.75;;;11.43;100.00
60817;BME280;51921;51.518;-3.188;2023-09-19T03:43:52;100190.86;;;10.51;100.00
60817;BME280;51921;51.518;-3.188;2023-09-19T03:46:18;100205.58;;;10.51;100.00
60817;BME280;51921;51.518;-3.188;2023-09-19T03:48:43;100202.99;;;10.07;100.00
60817;BME280;51921;51.518;-3.188;2023-09-19T03:51:09;100216.81;;;10.21;100.00
60817;BME280;51921;51.518;-3.188;2023-09-19T03:53:34;100205.83;;;10.15;100.00
60817;BME280;51921;51.518;-3.188;2023-09-19T03:55:59;100221.04;;;10.29;100.00
60817;BME280;51921;51.518;-3.188;2023-09-19T03:58:25;100211.62;;;10.05;100.00
60817;BME280;51921;51.518;-3.188;2023-09-19T04:00:53;100197.83;;;9.83;100.00
60817;BME280;51921;51.518;-3.188;2023-09-19T04:03:16;100202.74;;;9.81;100.00
60817;BME280;51921;51.518;-3.188;2023-09-19T04:05:41;100188.61;;;9.77;100.00
60817;BME280;51921;51.518;-3.188;2023-09-19T04:08:07;100186.48;;;9.99;100.00
60817;BME280;51921;51.518;-3.188;2023-09-19T04:10:32;100193.47;;;9.87;100.00
60817;BME280;51921;51.518;-3.188;2023-09-19T04:12:57;100184.75;;;9.97;100.00
60817;BME280;51921;51.518;-3.188;2023-09-19T04:15:23;100185.55;;;9.73;100.00
60817;BME280;51921;51.518;-3.188;2023-09-19T04:17:49;100173.21;;;10.67;100.00
60817;BME280;51921;51.518;-3.188;2023-09-19T04:20:14;100173.28;;;10.25;100.00
60817;BME280;51921;51.518;-3.188;2023-09-19T04:22:39;100160.93;;;10.75;100.00
60817;BME280;51921;51.518;-3.188;2023-09-19T04:25:05;100163.68;;;10.58;100.00
60817;BME280;51921;51.518;-3.188;2023-09-19T04:27:30;100161.34;;;10.84;100.00
60817;BME280;51921;51.518;-3.188;2023-09-19T04:29:55;100158.22;;;10.64;100.00
60817;BME280;51921;51.518;-3.188;2023-09-19T04:32:21;100151.03;;;10.74;100.00
60817;BME280;51921;51.518;-3.188;2023-09-19T04:34:46;100150.90;;;10.40;100.00
60817;BME280;51921;51.518;-3.188;2023-09-19T04:37:12;100145.95;;;10.34;100.00
60817;BME280;51921;51.518;-3.188;2023-09-19T04:39:37;100144.57;;;10.72;100.00
60817;BME280;51921;51.518;-3.188;2023-09-19T04:42:03;100147.06;;;11.12;100.00
60817;BME280;51921;51.518;-3.188;2023-09-19T04:44:28;100141.38;;;10.76;100.00
60817;BME280;51921;51.518;-3.188;2023-09-19T04:46:53;100137.71;;;10.80;100.00
60817;BME280;51921;51.518;-3.188;2023-09-19T04:49:19;100135.85;;;10.66;100.00
60817;BME280;51921;51.518;-3.188;2023-09-19T04:51:44;100135.67;;;10.61;100.00
60817;BME280;51921;51.518;-3.188;2023-09-19T04:54:10;100130.28;;;10.84;100.00
60817;BME280;51921;51.518;-3.188;2023-09-19T04:56:35;100125.74;;;10.99;100.00
60817;BME280;51921;51.518;-3.188;2023-09-19T04:59:01;100122.09;;;11.17;100.00
60817;BME280;51921;51.518;-3.188;2023-09-19T05:01:26;100119.10;;;10.50;100.00
60817;BME280;51921;51.518;-3.188;2023-09-19T05:03:51;100113.95;;;10.53;100.00
60817;BME280;51921;51.518;-3.188;2023-09-19T05:06:17;100106.98;;;10.91;100.00
60817;BME280;51921;51.518;-3.188;2023-09-19T05:08:42;100106.49;;;10.66;100.00
60817;BME280;51921;51.518;-3.188;2023-09-19T05:11:07;100106.31;;;10.66;100.00
60817;BME280;51921;51.518;-3.188;2023-09-19T05:13:33;100103.94;;;10.89;100.00
60817;BME280;51921;51.518;-3.188;2023-09-19T05:16:00;100102.19;;;10.93;100.00
60817;BME280;51921;51.518;-3.188;2023-09-19T05:18:23;100097.98;;;10.87;100.00
60817;BME280;51921;51.518;-3.188;2023-09-19T05:20:48;100102.13;;;10.62;100.00
60817;BME280;51921;51.518;-3.188;2023-09-19T05:23:14;100093.68;;;11.49;100.00
60817;BME280;51921;51.518;-3.188;2023-09-19T05:25:40;100094.71;;;10.64;100.00
60817;BME280;51921;51.518;-3.188;2023-09-19T05:28:05;100095.85;;;11.58;100.00
60817;BME280;51921;51.518;-3.188;2023-09-19T05:30:30;100100.02;;;10.85;100.00
60817;BME280;51921;51.518;-3.188;2023-09-19T05:32:56;100088.71;;;10.97;100.00
60817;BME280;51921;51.518;-3.188;2023-09-19T05:35:21;100086.94;;;11.30;100.00
60817;BME280;51921;51.518;-3.188;2023-09-19T05:37:47;100072.51;;;11.06;100.00
60817;BME280;51921;51.518;-3.188;2023-09-19T05:40:12;100085.29;;;11.44;100.00
60817;BME280;51921;51.518;-3.188;2023-09-19T05:42:38;100087.34;;;10.97;100.00
60817;BME280;51921;51.518;-3.188;2023-09-19T05:45:03;100084.55;;;11.29;100.00
60817;BME280;51921;51.518;-3.188;2023-09-19T05:47:28;100069.05;;;11.25;100.00
60817;BME280;51921;51.518;-3.188;2023-09-19T05:49:53;100068.75;;;11.46;100.00
60817;BME280;51921;51.518;-3.188;2023-09-19T05:52:19;100071.83;;;11.16;100.00
60817;BME280;51921;51.518;-3.188;2023-09-19T05:54:44;100065.22;;;11.21;100.00
60817;BME280;51921;51.518;-3.188;2023-09-19T05:57:10;100059.20;;;11.61;100.00
60817;BME280;51921;51.518;-3.188;2023-09-19T05:59:35;100068.58;;;11.35;100.00
60817;BME280;51921;51.518;-3.188;2023-09-19T06:02:00;100062.23;;;11.27;100.00
60817;BME280;51921;51.518;-3.188;2023-09-19T06:04:26;100055.92;;;11.23;100.00
60817;BME280;51921;51.518;-3.188;2023-09-19T06:06:51;100050.60;;;11.31;100.00
60817;BME280;51921;51.518;-3.188;2023-09-19T06:09:16;100048.05;;;11.25;100.00
60817;BME280;51921;51.518;-3.188;2023-09-19T06:11:42;100044.89;;;11.25;100.00
60817;BME280;51921;51.518;-3.188;2023-09-19T06:14:08;100036.33;;;11.08;100.00
60817;BME280;51921;51.518;-3.188;2023-09-19T06:16:33;100042.67;;;10.96;100.00
60817;BME280;51921;51.518;-3.188;2023-09-19T06:18:59;100050.06;;;11.29;100.00
60817;BME280;51921;51.518;-3.188;2023-09-19T06:21:23;100063.89;;;10.63;100.00
60817;BME280;51921;51.518;-3.188;2023-09-19T06:23:49;100061.94;;;10.94;100.00
60817;BME280;51921;51.518;-3.188;2023-09-19T06:26:14;100042.16;;;10.53;100.00
60817;BME280;51921;51.518;-3.188;2023-09-19T06:28:40;100069.28;;;10.97;100.00
60817;BME280;51921;51.518;-3.188;2023-09-19T06:31:05;100076.27;;;10.63;100.00
60817;BME280;51921;51.518;-3.188;2023-09-19T06:33:30;100077.92;;;10.64;100.00
60817;BME280;51921;51.518;-3.188;2023-09-19T06:35:55;100076.26;;;10.17;100.00
60817;BME280;51921;51.518;-3.188;2023-09-19T06:38:20;100073.46;;;10.38;100.00
60817;BME280;51921;51.518;-3.188;2023-09-19T06:40:46;100079.04;;;10.51;100.00
60817;BME280;51921;51.518;-3.188;2023-09-19T06:43:11;100084.58;;;10.89;100.00
60817;BME280;51921;51.518;-3.188;2023-09-19T06:45:36;100076.55;;;10.94;100.00
60817;BME280;51921;51.518;-3.188;2023-09-19T06:48:02;100087.15;;;10.71;100.00
60817;BME280;51921;51.518;-3.188;2023-09-19T06:50:28;100088.57;;;10.95;100.00
60817;BME280;51921;51.518;-3.188;2023-09-19T06:52:54;100096.31;;;10.88;100.00
60817;BME280;51921;51.518;-3.188;2023-09-19T06:55:19;100078.26;;;10.54;100.00
60817;BME280;51921;51.518;-3.188;2023-09-19T06:57:43;100066.10;;;10.69;100.00
60817;BME280;51921;51.518;-3.188;2023-09-19T07:00:09;100066.83;;;11.08;100.00
60817;BME280;51921;51.518;-3.188;2023-09-19T07:02:34;100064.79;;;10.41;100.00
60817;BME280;51921;51.518;-3.188;2023-09-19T07:04:59;100057.88;;;10.78;100.00
60817;BME280;51921;51.518;-3.188;2023-09-19T07:07:24;100051.75;;;10.63;100.00
60817;BME280;51921;51.518;-3.188;2023-09-19T07:09:50;100054.69;;;10.80;100.00
60817;BME280;51921;51.518;-3.188;2023-09-19T07:12:15;100052.24;;;10.66;100.00
60817;BME280;51921;51.518;-3.188;2023-09-19T07:14:41;100044.89;;;10.88;100.00
60817;BME280;51921;51.518;-3.188;2023-09-19T07:17:06;100057.87;;;11.30;100.00
60817;BME280;51921;51.518;-3.188;2023-09-19T07:19:32;100053.35;;;11.12;100.00
60817;BME280;51921;51.518;-3.188;2023-09-19T07:21:57;100056.17;;;10.95;100.00
60817;BME280;51921;51.518;-3.188;2023-09-19T07:24:22;100046.10;;;10.79;100.00
60817;BME280;51921;51.518;-3.188;2023-09-19T07:26:48;100041.95;;;10.98;100.00
60817;BME280;51921;51.518;-3.188;2023-09-19T07:29:13;100034.59;;;10.83;100.00
60817;BME280;51921;51.518;-3.188;2023-09-19T07:31:39;100031.31;;;10.88;100.00
60817;BME280;51921;51.518;-3.188;2023-09-19T07:34:04;100038.28;;;10.82;100.00
60817;BME280;51921;51.518;-3.188;2023-09-19T07:36:29;100039.37;;;10.92;100.00
60817;BME280;51921;51.518;-3.188;2023-09-19T07:38:55;100035.03;;;11.23;100.00
60817;BME280;51921;51.518;-3.188;2023-09-19T07:41:20;100025.20;;;11.74;100.00
60817;BME280;51921;51.518;-3.188;2023-09-19T07:43:46;100032.15;;;10.97;100.00
60817;BME280;51921;51.518;-3.188;2023-09-19T07:46:11;100030.81;;;11.43;100.00
60817;BME280;51921;51.518;-3.188;2023-09-19T07:48:37;100034.59;;;11.46;100.00
60817;BME280;51921;51.518;-3.188;2023-09-19T07:51:03;100032.17;;;11.32;100.00
60817;BME280;51921;51.518;-3.188;2023-09-19T07:53:27;100027.48;;;11.27;100.00
60817;BME280;51921;51.518;-3.188;2023-09-19T07:56:01;100022.35;;;11.19;100.00
60817;BME280;51921;51.518;-3.188;2023-09-19T07:58:19;100027.98;;;11.39;100.00
60817;BME280;51921;51.518;-3.188;2023-09-19T08:00:44;100021.77;;;11.03;100.00
60817;BME280;51921;51.518;-3.188;2023-09-19T08:03:09;100038.28;;;11.50;100.00
60817;BME280;51921;51.518;-3.188;2023-09-19T08:05:35;100035.24;;;11.12;100.00
60817;BME280;51921;51.518;-3.188;2023-09-19T08:08:00;100038.39;;;10.83;100.00
60817;BME280;51921;51.518;-3.188;2023-09-19T08:10:30;100029.40;;;10.92;100.00
60817;BME280;51921;51.518;-3.188;2023-09-19T08:12:51;100031.61;;;10.92;100.00
60817;BME280;51921;51.518;-3.188;2023-09-19T08:15:17;100026.52;;;11.22;100.00
60817;BME280;51921;51.518;-3.188;2023-09-19T08:17:42;100033.58;;;11.61;100.00
60817;BME280;51921;51.518;-3.188;2023-09-19T08:20:08;100029.26;;;11.18;100.00
60817;BME280;51921;51.518;-3.188;2023-09-19T08:22:32;100036.46;;;11.34;100.00
60817;BME280;51921;51.518;-3.188;2023-09-19T08:24:57;100032.13;;;10.96;100.00
60817;BME280;51921;51.518;-3.188;2023-09-19T08:27:23;100027.59;;;10.81;100.00
60817;BME280;51921;51.518;-3.188;2023-09-19T08:29:48;100030.18;;;11.21;100.00
60817;BME280;51921;51.518;-3.188;2023-09-19T08:32:14;100031.50;;;10.83;100.00
60817;BME280;51921;51.518;-3.188;2023-09-19T08:34:39;100022.76;;;11.68;100.00
60817;BME280;51921;51.518;-3.188;2023-09-19T08:37:04;100024.41;;;11.17;100.00
60817;BME280;51921;51.518;-3.188;2023-09-19T08:39:30;100026.01;;;11.06;100.00
60817;BME280;51921;51.518;-3.188;2023-09-19T08:41:58;100032.62;;;11.23;100.00
60817;BME280;51921;51.518;-3.188;2023-09-19T08:44:21;100036.00;;;11.53;100.00
60817;BME280;51921;51.518;-3.188;2023-09-19T08:46:46;100036.05;;;11.60;100.00
60817;BME280;51921;51.518;-3.188;2023-09-19T08:49:19;100034.75;;;11.41;100.00
60817;BME280;51921;51.518;-3.188;2023-09-19T08:51:42;100038.26;;;11.27;100.00
60817;BME280;51921;51.518;-3.188;2023-09-19T08:54:07;100035.47;;;11.97;100.00
60817;BME280;51921;51.518;-3.188;2023-09-19T08:56:29;100033.30;;;11.55;100.00
60817;BME280;51921;51.518;-3.188;2023-09-19T08:58:55;100030.36;;;11.43;100.00
60817;BME280;51921;51.518;-3.188;2023-09-19T09:01:19;100031.71;;;12.09;100.00
60817;BME280;51921;51.518;-3.188;2023-09-19T09:03:44;100033.74;;;11.66;100.00
60817;BME280;51921;51.518;-3.188;2023-09-19T09:06:09;100028.20;;;12.06;100.00
60817;BME280;51921;51.518;-3.188;2023-09-19T09:08:34;100023.33;;;11.42;100.00
60817;BME280;51921;51.518;-3.188;2023-09-19T09:11:00;100029.49;;;11.82;100.00
60817;BME280;51921;51.518;-3.188;2023-09-19T09:13:25;100019.37;;;11.63;100.00
60817;BME280;51921;51.518;-3.188;2023-09-19T09:15:51;100016.00;;;12.05;100.00
60817;BME280;51921;51.518;-3.188;2023-09-19T09:18:16;100027.61;;;11.96;100.00
60817;BME280;51921;51.518;-3.188;2023-09-19T09:20:46;100007.31;;;12.20;100.00
60817;BME280;51921;51.518;-3.188;2023-09-19T09:23:07;100018.57;;;11.83;100.00
60817;BME280;51921;51.518;-3.188;2023-09-19T09:25:47;100014.96;;;12.47;100.00
60817;BME280;51921;51.518;-3.188;2023-09-19T09:28:00;100020.13;;;12.56;100.00
60817;BME280;51921;51.518;-3.188;2023-09-19T09:35:14;100044.48;;;12.39;100.00
60817;BME280;51921;51.518;-3.188;2023-09-19T09:37:43;100021.72;;;12.25;100.00
60817;BME280;51921;51.518;-3.188;2023-09-19T09:40:05;100026.07;;;12.08;100.00
60817;BME280;51921;51.518;-3.188;2023-09-19T09:42:32;100015.87;;;12.45;100.00
60817;BME280;51921;51.518;-3.188;2023-09-19T09:45:12;100025.36;;;12.29;100.00
60817;BME280;51921;51.518;-3.188;2023-09-19T09:49:48;100020.01;;;12.02;100.00
60817;BME280;51921;51.518;-3.188;2023-09-19T09:52:11;100025.34;;;12.06;100.00
60817;BME280;51921;51.518;-3.188;2023-09-19T09:54:37;100021.90;;;11.64;100.00
60817;BME280;51921;51.518;-3.188;2023-09-19T09:57:04;100011.56;;;12.12;100.00
60817;BME280;51921;51.518;-3.188;2023-09-19T10:01:53;100005.94;;;12.13;100.00
60817;BME280;51921;51.518;-3.188;2023-09-19T10:04:28;100004.23;;;12.43;100.00
60817;BME280;51921;51.518;-3.188;2023-09-19T10:06:44;99984.88;;;12.02;100.00
60817;BME280;51921;51.518;-3.188;2023-09-19T10:09:09;99999.64;;;12.68;100.00
60817;BME280;51921;51.518;-3.188;2023-09-19T10:11:35;99997.43;;;12.37;100.00
60817;BME280;51921;51.518;-3.188;2023-09-19T10:14:00;99996.32;;;12.55;100.00
60817;BME280;51921;51.518;-3.188;2023-09-19T10:16:25;99991.82;;;12.29;100.00
60817;BME280;51921;51.518;-3.188;2023-09-19T10:18:53;99991.71;;;12.45;100.00
60817;BME280;51921;51.518;-3.188;2023-09-19T10:21:16;99994.13;;;12.76;100.00
60817;BME280;51921;51.518;-3.188;2023-09-19T10:23:42;99992.74;;;12.53;100.00
60817;BME280;51921;51.518;-3.188;2023-09-19T10:26:07;99994.34;;;12.46;100.00
60817;BME280;51921;51.518;-3.188;2023-09-19T10:28:34;99985.68;;;12.42;100.00
60817;BME280;51921;51.518;-3.188;2023-09-19T10:31:03;99988.50;;;12.66;100.00
60817;BME280;51921;51.518;-3.188;2023-09-19T10:33:24;99991.55;;;12.53;100.00
60817;BME280;51921;51.518;-3.188;2023-09-19T10:35:49;99993.43;;;12.61;100.00
60817;BME280;51921;51.518;-3.188;2023-09-19T10:38:14;100013.36;;;12.70;100.00
60817;BME280;51921;51.518;-3.188;2023-09-19T10:40:39;99990.60;;;12.42;100.00
60817;BME280;51921;51.518;-3.188;2023-09-19T10:43:05;100004.73;;;12.45;100.00
60817;BME280;51921;51.518;-3.188;2023-09-19T10:45:32;100003.73;;;12.39;100.00
60817;BME280;51921;51.518;-3.188;2023-09-19T10:47:55;100022.90;;;12.42;100.00
60817;BME280;51921;51.518;-3.188;2023-09-19T10:50:21;100020.92;;;12.56;100.00
60817;BME280;51921;51.518;-3.188;2023-09-19T10:52:46;100024.26;;;12.66;100.00
60817;BME280;51921;51.518;-3.188;2023-09-19T10:55:16;100032.14;;;12.46;100.00
60817;BME280;51921;51.518;-3.188;2023-09-19T10:57:36;100005.94;;;12.60;100.00
60817;BME280;51921;51.518;-3.188;2023-09-19T11:00:03;100008.17;;;12.67;100.00
60817;BME280;51921;51.518;-3.188;2023-09-19T11:02:27;100027.61;;;12.27;100.00
60817;BME280;51921;51.518;-3.188;2023-09-19T11:04:52;100021.13;;;12.41;100.00
60817;BME280;51921;51.518;-3.188;2023-09-19T11:07:18;100011.08;;;12.72;100.00
60817;BME280;51921;51.518;-3.188;2023-09-19T11:09:45;100008.39;;;12.93;100.00
60817;BME280;51921;51.518;-3.188;2023-09-19T11:12:09;100002.31;;;12.49;100.00
60817;BME280;51921;51.518;-3.188;2023-09-19T11:14:40;100005.78;;;12.68;100.00
60817;BME280;51921;51.518;-3.188;2023-09-19T11:21:52;100001.71;;;12.88;100.00
60817;BME280;51921;51.518;-3.188;2023-09-19T11:24:28;99992.82;;;12.94;100.00
60817;BME280;51921;51.518;-3.188;2023-09-19T11:26:41;99995.67;;;13.10;100.00
60817;BME280;51921;51.518;-3.188;2023-09-19T11:31:41;100000.70;;;12.88;100.00
60817;BME280;51921;51.518;-3.188;2023-09-19T11:38:57;100005.23;;;12.80;100.00
60817;BME280;51921;51.518;-3.188;2023-09-19T11:43:37;100005.68;;;12.98;100.00
60817;BME280;51921;51.518;-3.188;2023-09-19T11:46:04;100010.18;;;12.72;100.00
60817;BME280;51921;51.518;-3.188;2023-09-19T11:48:28;100007.37;;;13.04;100.00
60817;BME280;51921;51.518;-3.188;2023-09-19T11:50:53;99997.00;;;12.87;100.00
60817;BME280;51921;51.518;-3.188;2023-09-19T11:53:19;100008.55;;;13.34;100.00
60817;BME280;51921;51.518;-3.188;2023-09-19T11:55:45;100002.04;;;13.46;100.00
60817;BME280;51921;51.518;-3.188;2023-09-19T11:58:09;100000.38;;;12.93;100.00
60817;BME280;51921;51.518;-3.188;2023-09-19T12:00:35;100016.39;;;12.79;100.00
60817;BME280;51921;51.518;-3.188;2023-09-19T12:03:05;100011.25;;;12.52;100.00
60817;BME280;51921;51.518;-3.188;2023-09-19T12:05:28;100018.95;;;12.70;100.00
60817;BME280;51921;51.518;-3.188;2023-09-19T12:07:50;100038.59;;;12.88;100.00
60817;BME280;51921;51.518;-3.188;2023-09-19T12:10:15;100013.30;;;12.71;100.00
60817;BME280;51921;51.518;-3.188;2023-09-19T12:12:47;100016.81;;;12.67;100.00
60817;BME280;51921;51.518;-3.188;2023-09-19T12:15:07;100022.83;;;12.65;100.00
60817;BME280;51921;51.518;-3.188;2023-09-19T12:17:37;100027.99;;;12.67;100.00
60817;BME280;51921;51.518;-3.188;2023-09-19T12:19:57;100015.57;;;12.67;100.00
60817;BME280;51921;51.518;-3.188;2023-09-19T12:22:22;100018.68;;;12.82;100.00
60817;BME280;51921;51.518;-3.188;2023-09-19T12:24:48;100030.86;;;12.89;100.00
60817;BME280;51921;51.518;-3.188;2023-09-19T12:27:13;100045.11;;;12.64;100.00
60817;BME280;51921;51.518;-3.188;2023-09-19T12:29:44;100045.80;;;13.14;100.00
60817;BME280;51921;51.518;-3.188;2023-09-19T12:32:04;100045.99;;;13.51;100.00
60817;BME280;51921;51.518;-3.188;2023-09-19T12:34:30;100028.03;;;13.71;100.00
60817;BME280;51921;51.518;-3.188;2023-09-19T12:37:05;100027.68;;;13.75;100.00
60817;BME280;51921;51.518;-3.188;2023-09-19T12:39:23;100035.16;;;13.86;100.00
60817;BME280;51921;51.518;-3.188;2023-09-19T12:41:45;100039.36;;;13.41;100.00
60817;BME280;51921;51.518;-3.188;2023-09-19T12:44:11;100022.20;;;13.45;100.00
60817;BME280;51921;51.518;-3.188;2023-09-19T12:46:37;100025.87;;;13.88;100.00